createdAt,value
2019-03-03T00:00:05.359Z,27.04
2019-03-03T00:06:00.358Z,24.37
2019-03-03T00:11:55.363Z,22.72
2019-03-03T00:17:50.370Z,21.93
2019-03-03T00:23:45.358Z,21.9
2019-03-03T00:29:40.362Z,22.34
2019-03-03T00:35:35.398Z,21.79
2019-03-03T00:41:30.394Z,23.07
2019-03-03T00:47:25.464Z,25.96
2019-03-03T00:53:20.413Z,27.7
2019-03-03T00:59:15.380Z,27.84
2019-03-03T01:05:10.442Z,27.41
2019-03-03T01:11:05.409Z,27.98
2019-03-03T01:17:00.394Z,26.94
2019-03-03T01:22:55.394Z,24.6
2019-03-03T01:28:50.444Z,20.89
2019-03-03T01:34:45.409Z,20.77
2019-03-03T01:40:40.396Z,20.37
2019-03-03T01:46:35.406Z,20.75
2019-03-03T01:52:30.424Z,21.36
2019-03-03T01:58:25.407Z,21.14
2019-03-03T02:04:20.471Z,20.67
2019-03-03T02:10:15.450Z,21.9
2019-03-03T02:16:10.429Z,24.84
2019-03-03T02:22:05.422Z,24.05
2019-03-03T02:28:00.470Z,23.53
2019-03-03T02:33:55.439Z,23.41
2019-03-03T02:39:50.444Z,21.4
2019-03-03T02:45:45.486Z,22.79
2019-03-03T02:51:40.523Z,22.02
2019-03-03T02:57:35.443Z,22.22
2019-03-03T03:03:30.444Z,24.67
2019-03-03T03:09:25.470Z,25.24
2019-03-03T03:15:20.452Z,26.07
2019-03-03T03:21:15.448Z,23.8
2019-03-03T03:27:10.563Z,24.51
2019-03-03T03:33:05.470Z,23.89
2019-03-03T03:39:00.503Z,26.33
2019-03-03T03:44:55.489Z,25.72
2019-03-03T03:50:50.466Z,26.98
2019-03-03T03:56:45.549Z,30.09
2019-03-03T04:02:40.511Z,26.94
2019-03-03T04:08:35.512Z,22.8
2019-03-03T04:14:32.108Z,19.96
2019-03-03T04:20:25.541Z,20.4
2019-03-03T04:26:20.511Z,23.46
2019-03-03T04:32:15.512Z,22.19
2019-03-03T04:38:10.497Z,23.17
2019-03-03T04:44:05.515Z,21.24
2019-03-03T04:50:00.516Z,23.38
2019-03-03T04:55:55.526Z,20.07
2019-03-03T05:01:50.544Z,18.86
2019-03-03T05:07:45.522Z,20.2
2019-03-03T05:13:40.520Z,18.57
2019-03-03T05:19:35.538Z,21.01
2019-03-03T05:25:30.552Z,23.99
2019-03-03T05:31:25.545Z,21.69
2019-03-03T05:37:20.539Z,22.69
2019-03-03T05:43:15.515Z,23.21
2019-03-03T05:49:10.549Z,21.15
2019-03-03T05:55:05.534Z,20.67
2019-03-03T06:01:00.551Z,24.25
2019-03-03T06:06:55.599Z,22.95
2019-03-03T06:12:50.572Z,22.25
2019-03-03T06:18:45.556Z,22.79
2019-03-03T06:24:40.591Z,22.34
2019-03-03T06:30:35.573Z,27.24
2019-03-03T06:36:30.590Z,29.12
2019-03-03T06:42:25.594Z,32.36
2019-03-03T06:48:20.647Z,31.91
2019-03-03T06:54:15.664Z,30.32
2019-03-03T07:00:10.591Z,32.04
2019-03-03T07:06:05.626Z,35
2019-03-03T07:12:00.565Z,34.86
2019-03-03T07:17:55.611Z,36.63
2019-03-03T07:23:50.609Z,36.86
2019-03-03T07:29:45.624Z,32.2
2019-03-03T07:35:40.588Z,31.19
2019-03-03T07:41:35.636Z,29.68
2019-03-03T07:47:30.607Z,32.62
2019-03-03T07:53:25.600Z,39.62
2019-03-03T07:59:20.603Z,35.94
2019-03-03T08:05:15.636Z,32.26
2019-03-03T08:11:10.618Z,33.18
2019-03-03T08:17:05.630Z,35.13
2019-03-03T08:23:00.620Z,32.7
2019-03-03T08:28:55.656Z,36.47
2019-03-03T08:34:50.625Z,34.11
2019-03-03T08:40:45.658Z,36.07
2019-03-03T08:46:40.653Z,36.38
2019-03-03T08:52:35.638Z,34.93
2019-03-03T08:58:30.626Z,33.87
2019-03-03T09:04:25.662Z,33.49
2019-03-03T09:10:25.309Z,32.16
2019-03-03T09:16:15.654Z,32.62
2019-03-03T09:22:10.659Z,36.13
2019-03-03T09:28:05.667Z,37.23
2019-03-03T09:34:00.661Z,36.96
2019-03-03T09:39:55.683Z,35.61
2019-03-03T09:45:50.678Z,36.78
2019-03-03T09:51:45.693Z,36.27
2019-03-03T09:57:40.684Z,34.57
2019-03-03T10:03:35.680Z,33.38
2019-03-03T10:09:30.676Z,33.04
2019-03-03T10:15:25.694Z,34.43
2019-03-03T10:21:20.675Z,33.3
2019-03-03T10:27:15.766Z,32.57
2019-03-03T10:33:10.694Z,30.77
2019-03-03T10:39:05.721Z,26.75
2019-03-03T10:45:00.717Z,23.95
2019-03-03T10:50:55.711Z,27.67
2019-03-03T10:56:50.730Z,26.85
2019-03-03T11:02:45.723Z,27.06
2019-03-03T11:08:40.757Z,26.55
2019-03-03T11:14:35.753Z,26.22
2019-03-03T11:20:30.749Z,26.06
2019-03-03T11:26:25.734Z,24.65
2019-03-03T11:32:20.749Z,23.47
2019-03-03T11:38:15.778Z,20.29
2019-03-03T11:44:10.741Z,20.77
2019-03-03T11:50:05.775Z,21.59
2019-03-03T11:56:00.756Z,39.23
2019-03-03T12:01:55.742Z,19.35
2019-03-03T12:07:50.793Z,19.32
2019-03-03T12:13:45.757Z,18.58
2019-03-03T12:19:40.769Z,18.23
2019-03-03T12:27:58.755Z,17.83
2019-03-03T12:33:53.744Z,18.13
2019-03-03T12:39:48.745Z,18.75
2019-03-03T12:45:43.738Z,19.01
2019-03-03T12:51:38.776Z,17.25
2019-03-03T12:57:33.834Z,13.74
2019-03-03T13:03:28.774Z,12.47
2019-03-03T13:09:23.747Z,14.04
2019-03-03T13:15:18.764Z,12.86
2019-03-03T13:21:13.804Z,13.65
2019-03-03T13:27:08.765Z,13.48
2019-03-03T13:33:03.808Z,14.28
2019-03-03T13:38:58.796Z,15.5
2019-03-03T13:44:53.780Z,14.58
2019-03-03T13:50:48.794Z,14.19
2019-03-03T13:56:43.787Z,13.69
2019-03-03T14:02:38.849Z,15.76
2019-03-03T14:08:33.819Z,15.75
2019-03-03T14:14:28.783Z,11.13
2019-03-03T14:20:23.803Z,10.27
2019-03-03T14:26:18.812Z,8.38
2019-03-03T14:32:13.810Z,9.36
2019-03-03T14:38:08.858Z,8.44
2019-03-03T14:44:03.841Z,8.57
2019-03-03T14:49:58.812Z,8.67
2019-03-03T14:55:53.823Z,9.08
2019-03-03T15:01:48.849Z,8.47
2019-03-03T15:07:45.735Z,9.13
2019-03-03T15:13:38.814Z,8.5
2019-03-03T15:19:33.829Z,8.39
2019-03-03T15:25:28.839Z,7.89
2019-03-03T15:31:23.848Z,7.87
2019-03-03T15:37:18.914Z,6.53
2019-03-03T15:43:13.877Z,6.5
2019-03-03T15:49:08.838Z,5.58
2019-03-03T15:55:03.854Z,6.18
2019-03-03T16:00:58.897Z,7.12
2019-03-03T16:06:53.904Z,6.64
2019-03-03T16:12:48.900Z,6.81
2019-03-03T16:18:43.855Z,5.91
2019-03-03T16:24:38.906Z,5.36
2019-03-03T16:30:33.910Z,5.12
2019-03-03T16:36:28.936Z,6.33
2019-03-03T16:42:23.911Z,5.6
2019-03-03T16:48:18.907Z,7.21
2019-03-03T16:54:13.900Z,6.56
2019-03-03T17:00:08.936Z,6.63
2019-03-03T17:06:03.907Z,6.33
2019-03-03T17:11:58.920Z,8.65
2019-03-03T17:17:53.915Z,11.03
2019-03-03T17:23:48.924Z,8.7
2019-03-03T17:29:43.953Z,7.71
2019-03-03T17:35:39.010Z,7.4
2019-03-03T17:41:33.920Z,7.07
2019-03-03T17:47:28.920Z,6.45
2019-03-03T17:53:23.957Z,6.87
2019-03-03T17:59:18.937Z,6.35
2019-03-03T18:05:13.918Z,6.45
2019-03-03T18:11:08.951Z,6.87
2019-03-03T18:17:03.996Z,6.6
2019-03-03T18:22:58.948Z,6.46
2019-03-03T18:28:53.944Z,6.14
2019-03-03T18:34:48.962Z,6.9
2019-03-03T18:40:43.944Z,5.62
2019-03-03T18:46:38.975Z,7.19
2019-03-03T18:52:33.987Z,6.24
2019-03-03T18:58:28.977Z,5.9
2019-03-03T19:04:23.967Z,6.39
2019-03-03T19:10:18.962Z,6.3
2019-03-03T19:16:13.991Z,6.77
2019-03-03T19:22:08.992Z,8.42
2019-03-03T19:28:03.995Z,11.33
2019-03-03T19:33:59.024Z,11.91
2019-03-03T19:39:54.013Z,11.55
2019-03-03T19:45:49.026Z,11.9
2019-03-03T19:51:44.009Z,11.26
2019-03-03T19:57:39.027Z,10.87
2019-03-03T20:03:34.014Z,11.49
2019-03-03T20:09:29.095Z,11.03
2019-03-03T20:15:24.010Z,11.4
2019-03-03T20:21:19.007Z,11.35
2019-03-03T20:27:14.004Z,11.49
2019-03-03T20:33:09.015Z,12.42
2019-03-03T20:39:04.031Z,11.26
2019-03-03T20:44:59.027Z,13.63
2019-03-03T20:50:54.043Z,12.67
2019-03-03T20:56:49.051Z,14.47
2019-03-03T21:02:44.020Z,11.71
2019-03-03T21:08:39.037Z,10.95
2019-03-03T21:14:34.042Z,11.8
2019-03-03T21:20:29.053Z,14.63
2019-03-03T21:26:24.065Z,12.89
2019-03-03T21:32:19.055Z,12.45
2019-03-03T21:38:14.087Z,13.76
2019-03-03T21:44:09.099Z,12.71
2019-03-03T21:50:04.054Z,11.7
2019-03-03T21:55:59.090Z,12.9
2019-03-03T22:01:54.096Z,13.23
2019-03-03T22:07:49.099Z,12.57
2019-03-03T22:13:44.066Z,11.88
2019-03-03T22:19:39.073Z,11.53
2019-03-03T22:25:34.141Z,12.4
2019-03-03T22:31:29.106Z,12.98
2019-03-03T22:37:24.098Z,12.2
2019-03-03T22:43:19.096Z,11.66
2019-03-03T22:49:14.120Z,11.13
2019-03-03T22:55:09.123Z,12.27
2019-03-03T23:01:04.115Z,12.11
2019-03-03T23:06:59.113Z,12.16
2019-03-03T23:12:54.106Z,12.95
2019-03-03T23:18:49.111Z,13.93
2019-03-03T23:24:44.167Z,16.01
2019-03-03T23:30:39.124Z,16.31
2019-03-03T23:36:34.177Z,15.48
2019-03-03T23:42:29.135Z,13.81
2019-03-03T23:48:24.158Z,14.51
2019-03-03T23:54:19.132Z,14.9
